Time,TemperatureF,DewpointF,PressureIn,WindDirection,WindDirectionDegrees,WindSpeedMPH,WindSpeedGustMPH,Humidity,HourlyPrecipIn,Conditions,Clouds,dailyrainin,SoftwareType,DateUTC
2013-06-18 00:01:00,67.8,65.1,29.92,NNW,346,0.0,0.0,91,0.00,,,0.00,VWS V14.01,2013-06-18 04:01:00,
2013-06-18 00:06:00,67.5,65.1,29.92,NNW,346,0.0,0.0,92,0.00,,,0.00,VWS V14.01,2013-06-18 04:06:00,
2013-06-18 00:11:00,67.4,65.0,29.92,NNW,346,0.0,0.0,92,0.00,,,0.00,VWS V14.01,2013-06-18 04:11:00,
2013-06-18 00:16:00,67.2,64.8,29.92,NNW,346,0.0,0.0,92,0.00,,,0.00,VWS V14.01,2013-06-18 04:16:00,
2013-06-18 00:21:00,67.0,64.6,29.92,NNW,346,0.0,0.0,92,0.00,,,0.00,VWS V14.01,2013-06-18 04:21:00,
2013-06-18 00:26:00,66.8,64.7,29.92,NNW,346,0.0,0.0,93,0.00,,,0.00,VWS V14.01,2013-06-18 04:26:00,
2013-06-18 00:31:00,66.7,64.6,29.92,NNW,346,0.0,0.0,93,0.00,,,0.00,VWS V14.01,2013-06-18 04:31:00,
2013-06-18 00:37:00,66.7,64.9,29.92,NNW,346,0.0,0.0,94,0.00,,,0.00,VWS V14.01,2013-06-18 04:37:00,
2013-06-18 00:42:00,66.6,64.5,29.92,NNW,346,0.0,0.0,93,0.00,,,0.00,VWS V14.01,2013-06-18 04:42:00,
2013-06-18 00:47:00,66.6,64.8,29.92,NNW,346,0.0,0.0,94,0.00,,,0.00,VWS V14.01,2013-06-18 04:47:00,
2013-06-18 00:52:00,66.5,64.7,29.92,NNW,346,0.0,0.0,94,0.00,,,0.00,VWS V14.01,2013-06-18 04:52:00,
2013-06-18 00:57:00,66.3,64.5,29.92,NNW,346,0.0,0.0,94,0.00,,,0.00,VWS V14.01,2013-06-18 04:57:00,
2013-06-18 01:02:00,66.3,64.5,29.91,NNW,346,0.0,0.0,94,0.00,,,0.00,VWS V14.01,2013-06-18 05:02:00,
2013-06-18 01:07:00,66.3,64.5,29.91,NNW,346,0.0,0.0,94,0.00,,,0.00,VWS V14.01,2013-06-18 05:07:00,
2013-06-18 01:12:00,66.3,64.5,29.91,NNW,346,0.0,0.0,94,0.00,,,0.00,VWS V14.01,2013-06-18 05:12:00,
2013-06-18 01:17:00,66.2,64.4,29.91,NNW,346,0.0,0.0,94,0.00,,,0.00,VWS V14.01,2013-06-18 05:17:00,
2013-06-18 01:22:00,66.2,64.4,29.91,NNW,346,0.0,0.0,94,0.00,,,0.00,VWS V14.01,2013-06-18 05:22:00,
2013-06-18 01:27:00,66.1,64.3,29.91,North,360,0.0,0.0,94,0.00,,,0.00,VWS V14.01,2013-06-18 05:27:00,
2013-06-18 01:32:00,66.0,64.2,29.91,North,360,0.0,0.0,94,0.00,,,0.00,VWS V14.01,2013-06-18 05:32:00,
2013-06-18 01:37:00,65.9,64.4,29.91,North,360,0.0,0.0,95,0.00,,,0.00,VWS V14.01,2013-06-18 05:37:00,
2013-06-18 01:42:00,65.9,64.4,29.91,North,360,0.0,0.0,95,0.00,,,0.00,VWS V14.01,2013-06-18 05:42:00,
2013-06-18 01:47:00,65.7,64.2,29.91,North,360,0.0,0.0,95,0.00,,,0.00,VWS V14.01,2013-06-18 05:47:00,
2013-06-18 01:52:00,65.6,64.1,29.91,North,360,0.0,0.0,95,0.00,,,0.00,VWS V14.01,2013-06-18 05:52:00,
2013-06-18 01:57:00,65.6,64.1,29.91,North,360,0.0,0.0,95,0.00,,,0.00,VWS V14.01,2013-06-18 05:57:00,
2013-06-18 02:02:00,65.5,64.0,29.91,North,360,0.0,0.0,95,0.00,,,0.00,VWS V14.01,2013-06-18 06:02:00,
2013-06-18 02:07:00,65.4,63.9,29.90,North,360,0.0,0.0,95,0.00,,,0.00,VWS V14.01,2013-06-18 06:07:00,
2013-06-18 02:12:00,65.3,63.8,29.90,North,360,0.0,0.0,95,0.00,,,0.00,VWS V14.01,2013-06-18 06:12:00,
2013-06-18 02:17:00,65.3,63.8,29.90,North,360,0.0,0.0,95,0.00,,,0.00,VWS V14.01,2013-06-18 06:17:00,
2013-06-18 02:22:00,65.3,63.8,29.90,North,360,0.0,0.0,95,0.00,,,0.00,VWS V14.01,2013-06-18 06:22:00,
2013-06-18 02:27:00,65.2,63.7,29.90,North,360,0.0,0.0,95,0.00,,,0.00,VWS V14.01,2013-06-18 06:27:00,
2013-06-18 02:32:00,65.2,63.7,29.90,North,360,0.0,0.0,95,0.00,,,0.00,VWS V14.01,2013-06-18 06:32:00,
2013-06-18 02:37:00,65.1,63.6,29.90,North,360,0.0,0.0,95,0.00,,,0.00,VWS V14.01,2013-06-18 06:37:00,
2013-06-18 02:42:00,65.1,63.9,29.90,North,360,0.0,0.0,96,0.00,,,0.00,VWS V14.01,2013-06-18 06:42:00,
2013-06-18 02:47:00,65.0,63.8,29.89,North,360,0.0,0.0,96,0.00,,,0.00,VWS V14.01,2013-06-18 06:47:00,
2013-06-18 02:52:00,65.0,63.8,29.89,North,360,0.0,0.0,96,0.00,,,0.00,VWS V14.01,2013-06-18 06:52:00,
2013-06-18 02:57:00,65.0,63.8,29.89,North,360,0.0,0.0,96,0.00,,,0.00,VWS V14.01,2013-06-18 06:57:00,
2013-06-18 03:02:00,65.0,63.8,29.89,North,360,0.0,0.0,96,0.00,,,0.00,VWS V14.01,2013-06-18 07:02:00,
2013-06-18 03:07:00,65.0,63.8,29.89,North,360,0.0,0.0,96,0.00,,,0.00,VWS V14.01,2013-06-18 07:07:00,
2013-06-18 03:12:00,64.9,63.7,29.89,North,360,0.0,0.0,96,0.00,,,0.00,VWS V14.01,2013-06-18 07:12:00,
2013-06-18 03:17:00,64.9,63.7,29.88,North,360,0.0,0.0,96,0.00,,,0.00,VWS V14.01,2013-06-18 07:17:00,
2013-06-18 03:22:00,64.9,63.7,29.88,North,360,0.0,0.0,96,0.00,,,0.00,VWS V14.01,2013-06-18 07:22:00,
2013-06-18 03:27:00,64.9,63.7,29.88,North,360,0.0,0.0,96,0.00,,,0.00,VWS V14.01,2013-06-18 07:27:00,
2013-06-18 03:32:00,64.9,63.7,29.88,North,360,0.0,0.0,96,0.00,,,0.00,VWS V14.01,2013-06-18 07:32:00,
2013-06-18 03:38:00,64.8,63.6,29.88,North,360,0.0,0.0,96,0.00,,,0.00,VWS V14.01,2013-06-18 07:38:00,
2013-06-18 03:43:00,64.8,63.6,29.88,North,360,0.0,0.0,96,0.00,,,0.00,VWS V14.01,2013-06-18 07:43:00,
2013-06-18 03:48:00,64.7,63.5,29.88,North,360,0.0,0.0,96,0.00,,,0.00,VWS V14.01,2013-06-18 07:48:00,
2013-06-18 03:53:00,64.7,63.5,29.88,North,360,0.0,0.0,96,0.00,,,0.00,VWS V14.01,2013-06-18 07:53:00,
2013-06-18 03:58:00,64.6,63.4,29.88,North,360,0.0,0.0,96,0.00,,,0.00,VWS V14.01,2013-06-18 07:58:00,
2013-06-18 04:03:00,64.6,63.4,29.88,North,360,0.0,0.0,96,0.00,,,0.00,VWS V14.01,2013-06-18 08:03:00,
2013-06-18 04:08:00,64.6,63.4,29.88,North,355,0.0,0.0,96,0.00,,,0.00,VWS V14.01,2013-06-18 08:08:00,
2013-06-18 04:13:00,64.5,63.3,29.89,North,355,0.0,0.0,96,0.00,,,0.00,VWS V14.01,2013-06-18 08:13:00,
2013-06-18 04:18:00,64.5,63.3,29.89,North,355,0.0,0.0,96,0.00,,,0.00,VWS V14.01,2013-06-18 08:18:00,
2013-06-18 04:23:00,64.5,63.3,29.89,North,355,0.0,0.0,96,0.00,,,0.00,VWS V14.01,2013-06-18 08:23:00,
2013-06-18 04:28:00,64.4,63.2,29.89,North,355,0.0,0.0,96,0.00,,,0.00,VWS V14.01,2013-06-18 08:28:00,
2013-06-18 04:33:00,64.4,63.2,29.89,North,355,0.0,0.0,96,0.00,,,0.00,VWS V14.01,2013-06-18 08:33:00,
2013-06-18 04:38:00,64.3,63.1,29.89,North,355,0.0,0.0,96,0.00,,,0.00,VWS V14.01,2013-06-18 08:38:00,
2013-06-18 04:43:00,64.3,63.1,29.89,North,355,0.0,0.0,96,0.00,,,0.00,VWS V14.01,2013-06-18 08:43:00,
2013-06-18 04:48:00,64.1,62.9,29.89,North,355,0.0,0.0,96,0.00,,,0.00,VWS V14.01,2013-06-18 08:48:00,
2013-06-18 04:53:00,64.0,62.8,29.90,North,355,0.0,0.0,96,0.00,,,0.00,VWS V14.01,2013-06-18 08:53:00,
2013-06-18 04:58:00,64.0,62.8,29.90,North,355,0.0,0.0,96,0.00,,,0.00,VWS V14.01,2013-06-18 08:58:00,
2013-06-18 05:03:00,63.9,62.7,29.90,North,355,0.0,0.0,96,0.00,,,0.00,VWS V14.01,2013-06-18 09:03:00,
2013-06-18 05:08:00,63.8,62.6,29.90,North,355,0.0,0.0,96,0.00,,,0.00,VWS V14.01,2013-06-18 09:08:00,
2013-06-18 05:13:00,63.7,62.5,29.89,North,355,0.0,0.0,96,0.00,,,0.00,VWS V14.01,2013-06-18 09:13:00,
2013-06-18 05:18:00,63.7,62.5,29.90,North,355,0.0,0.0,96,0.00,,,0.00,VWS V14.01,2013-06-18 09:18:00,
2013-06-18 05:23:00,63.6,62.4,29.90,North,355,0.0,0.0,96,0.00,,,0.00,VWS V14.01,2013-06-18 09:23:00,
2013-06-18 05:28:00,63.6,62.4,29.90,North,355,0.0,0.0,96,0.00,,,0.00,VWS V14.01,2013-06-18 09:28:00,
2013-06-18 05:33:00,63.5,62.3,29.90,North,355,0.0,0.0,96,0.00,,,0.00,VWS V14.01,2013-06-18 09:33:00,
2013-06-18 05:38:00,63.4,62.2,29.90,North,355,0.0,0.0,96,0.00,,,0.00,VWS V14.01,2013-06-18 09:38:00,
2013-06-18 05:43:00,63.4,62.5,29.90,North,355,0.0,0.0,97,0.00,,,0.00,VWS V14.01,2013-06-18 09:43:00,
2013-06-18 05:48:00,63.4,62.5,29.90,North,355,0.0,0.0,97,0.00,,,0.00,VWS V14.01,2013-06-18 09:48:00,
2013-06-18 05:53:00,63.5,62.6,29.90,North,355,0.0,0.0,97,0.00,,,0.00,VWS V14.01,2013-06-18 09:53:00,
2013-06-18 05:58:00,63.4,62.5,29.90,North,355,0.0,0.0,97,0.00,,,0.00,VWS V14.01,2013-06-18 09:58:00,
2013-06-18 06:03:00,63.4,62.5,29.91,North,355,0.0,0.0,97,0.00,,,0.00,VWS V14.01,2013-06-18 10:03:00,
2013-06-18 06:08:00,63.5,62.6,29.91,ESE,109,0.0,0.0,97,0.00,,,0.00,VWS V14.01,2013-06-18 10:08:00,
2013-06-18 06:13:00,63.7,62.8,29.90,ESE,110,0.0,0.0,97,0.00,,,0.00,VWS V14.01,2013-06-18 10:13:00,
2013-06-18 06:18:00,63.8,62.9,29.90,ESE,110,0.0,0.0,97,0.00,,,0.00,VWS V14.01,2013-06-18 10:18:00,
2013-06-18 06:23:00,64.0,63.1,29.90,ESE,109,0.0,0.0,97,0.00,,,0.00,VWS V14.01,2013-06-18 10:23:00,
2013-06-18 06:28:00,64.1,63.5,29.90,ESE,108,0.0,0.0,98,0.00,,,0.00,VWS V14.01,2013-06-18 10:28:00,
2013-06-18 06:33:00,64.4,63.8,29.90,ESE,108,0.0,0.0,98,0.00,,,0.00,VWS V14.01,2013-06-18 10:33:00,
2013-06-18 06:38:00,64.6,63.7,29.90,ESE,118,0.0,0.0,97,0.00,,,0.00,VWS V14.01,2013-06-18 10:38:00,
2013-06-18 06:43:00,64.8,64.2,29.90,NE,55,0.0,0.0,98,0.00,,,0.00,VWS V14.01,2013-06-18 10:43:00,
2013-06-18 06:48:00,65.0,64.1,29.91,ENE,61,0.0,0.0,97,0.00,,,0.00,VWS V14.01,2013-06-18 10:48:00,
2013-06-18 06:53:00,65.2,64.3,29.90,ENE,64,0.0,0.0,97,0.00,,,0.00,VWS V14.01,2013-06-18 10:53:00,
2013-06-18 06:58:00,65.3,64.4,29.90,ENE,64,0.0,0.0,97,0.00,,,0.00,VWS V14.01,2013-06-18 10:58:00,
2013-06-18 07:03:00,65.5,64.6,29.91,ENE,64,0.0,0.0,97,0.00,,,0.00,VWS V14.01,2013-06-18 11:03:00,
2013-06-18 07:08:00,65.7,64.8,29.91,ENE,64,0.0,0.0,97,0.00,,,0.00,VWS V14.01,2013-06-18 11:08:00,
2013-06-18 07:14:00,65.9,65.0,29.91,ENE,64,0.0,0.0,97,0.00,,,0.00,VWS V14.01,2013-06-18 11:14:00,
2013-06-18 07:19:00,66.2,65.3,29.91,ENE,64,0.0,0.0,97,0.00,,,0.00,VWS V14.01,2013-06-18 11:19:00,
2013-06-18 07:24:00,66.6,65.7,29.91,ENE,64,0.0,0.0,97,0.00,,,0.00,VWS V14.01,2013-06-18 11:24:00,
2013-06-18 07:29:00,66.8,65.6,29.91,ENE,64,0.0,0.0,96,0.00,,,0.00,VWS V14.01,2013-06-18 11:29:00,
2013-06-18 07:34:00,67.2,66.0,29.91,ENE,64,0.0,0.0,96,0.00,,,0.00,VWS V14.01,2013-06-18 11:34:00,
2013-06-18 07:39:00,67.5,66.3,29.90,ENE,64,0.0,0.0,96,0.00,,,0.00,VWS V14.01,2013-06-18 11:39:00,
2013-06-18 07:44:00,67.8,66.6,29.90,ENE,64,0.0,0.0,96,0.00,,,0.00,VWS V14.01,2013-06-18 11:44:00,
2013-06-18 07:49:00,68.2,66.7,29.90,ENE,64,0.0,0.0,95,0.00,,,0.00,VWS V14.01,2013-06-18 11:49:00,
2013-06-18 07:54:00,68.6,67.1,29.90,ENE,64,0.0,0.0,95,0.00,,,0.00,VWS V14.01,2013-06-18 11:54:00,
2013-06-18 07:59:00,69.0,67.5,29.90,ENE,64,0.0,0.0,95,0.00,,,0.00,VWS V14.01,2013-06-18 11:59:00,
2013-06-18 08:04:00,69.3,67.2,29.90,ENE,64,0.0,0.0,93,0.00,,CLR,0.00,VWS V14.01,2013-06-18 12:04:00,
2013-06-18 08:09:00,69.5,67.1,29.91,ENE,64,0.0,0.0,92,0.00,,CLR,0.00,VWS V14.01,2013-06-18 12:09:00,
2013-06-18 08:14:00,69.7,67.0,29.91,ENE,64,0.0,0.0,91,0.00,,CLR,0.00,VWS V14.01,2013-06-18 12:14:00,
2013-06-18 08:19:00,70.2,67.8,29.91,ENE,64,0.0,0.0,92,0.00,,CLR,0.00,VWS V14.01,2013-06-18 12:19:00,
2013-06-18 08:24:00,70.6,67.8,29.91,ENE,64,0.0,0.0,91,0.00,,CLR,0.00,VWS V14.01,2013-06-18 12:24:00,
2013-06-18 08:29:00,71.1,68.0,29.91,ENE,64,0.0,0.0,90,0.00,,CLR,0.00,VWS V14.01,2013-06-18 12:29:00,
2013-06-18 08:34:00,71.6,67.9,29.91,ENE,64,0.0,0.0,88,0.00,,CLR,0.00,VWS V14.01,2013-06-18 12:34:00,
2013-06-18 08:39:00,72.1,68.0,29.91,ENE,64,0.0,0.0,87,0.00,,CLR,0.00,VWS V14.01,2013-06-18 12:39:00,
2013-06-18 08:44:00,72.4,68.0,29.91,ENE,64,0.0,0.0,86,0.00,,CLR,0.00,VWS V14.01,2013-06-18 12:44:00,
2013-06-18 08:49:00,72.5,67.7,29.91,ENE,64,0.0,0.0,85,0.00,,CLR,0.00,VWS V14.01,2013-06-18 12:49:00,
2013-06-18 08:54:00,72.6,67.8,29.91,ENE,64,0.0,0.0,85,0.00,,CLR,0.00,VWS V14.01,2013-06-18 12:54:00,
2013-06-18 08:59:00,73.0,68.2,29.91,ENE,64,0.0,0.0,85,0.00,,CLR,0.00,VWS V14.01,2013-06-18 12:59:00,
2013-06-18 09:04:00,73.1,68.3,29.91,ENE,64,0.0,0.0,85,0.00,,CLR,0.00,VWS V14.01,2013-06-18 13:04:00,
2013-06-18 09:09:00,73.4,68.6,29.91,ENE,65,0.0,0.0,85,0.00,,CLR,0.00,VWS V14.01,2013-06-18 13:09:00,
2013-06-18 09:14:00,73.4,68.3,29.91,SE,127,0.0,0.0,84,0.00,,CLR,0.00,VWS V14.01,2013-06-18 13:14:00,
2013-06-18 09:19:00,73.5,68.7,29.91,ESE,103,0.0,0.0,85,0.00,,CLR,0.00,VWS V14.01,2013-06-18 13:19:00,
2013-06-18 09:24:00,73.8,69.0,29.91,ESE,119,0.0,0.0,85,0.00,,CLR,0.00,VWS V14.01,2013-06-18 13:24:00,
2013-06-18 09:29:00,74.1,69.0,29.91,SE,130,0.0,0.0,84,0.00,,CLR,0.00,VWS V14.01,2013-06-18 13:29:00,
2013-06-18 09:34:00,74.5,69.0,29.91,ESE,105,0.0,0.0,83,0.00,,CLR,0.00,VWS V14.01,2013-06-18 13:34:00,
2013-06-18 09:39:00,75.0,69.1,29.91,ESE,112,0.0,0.0,82,0.00,,CLR,0.00,VWS V14.01,2013-06-18 13:39:00,
2013-06-18 09:44:00,75.5,69.3,29.90,ESE,104,0.0,0.0,81,0.00,,CLR,0.00,VWS V14.01,2013-06-18 13:44:00,
2013-06-18 09:49:00,75.6,69.4,29.90,SE,142,0.0,0.0,81,0.00,,CLR,0.00,VWS V14.01,2013-06-18 13:49:00,
2013-06-18 09:54:00,75.3,69.4,29.90,SE,136,0.0,0.0,82,0.00,,CLR,0.00,VWS V14.01,2013-06-18 13:54:00,
2013-06-18 09:59:00,75.3,69.4,29.90,South,191,0.0,0.0,82,0.00,,CLR,0.00,VWS V14.01,2013-06-18 13:59:00,
2013-06-18 10:04:00,75.7,69.5,29.89,SSE,157,0.0,2.0,81,0.00,,CLR,0.00,VWS V14.01,2013-06-18 14:04:00,
2013-06-18 10:09:00,75.9,69.7,29.90,SE,143,1.0,4.0,81,0.00,,CLR,0.00,VWS V14.01,2013-06-18 14:09:00,
2013-06-18 10:14:00,76.5,69.9,29.89,SE,128,3.0,4.0,80,0.00,,CLR,0.00,VWS V14.01,2013-06-18 14:14:00,
2013-06-18 10:19:00,76.7,70.1,29.89,NE,42,0.0,4.0,80,0.00,,CLR,0.00,VWS V14.01,2013-06-18 14:19:00,
2013-06-18 10:24:00,77.4,70.0,29.89,SSE,147,5.0,5.0,78,0.00,,CLR,0.00,VWS V14.01,2013-06-18 14:24:00,
2013-06-18 10:29:00,77.8,70.8,29.88,NNW,336,0.0,0.0,79,0.00,,CLR,0.00,VWS V14.01,2013-06-18 14:29:00,
2013-06-18 10:35:00,78.2,70.0,29.89,NE,56,0.0,7.0,76,0.00,,CLR,0.00,VWS V14.01,2013-06-18 14:35:00,
2013-06-18 10:40:00,78.8,70.2,29.89,South,179,3.0,7.0,75,0.00,,CLR,0.00,VWS V14.01,2013-06-18 14:40:00,
2013-06-18 10:45:00,79.0,69.6,29.89,SE,138,2.0,7.0,73,0.00,,CLR,0.00,VWS V14.01,2013-06-18 14:45:00,
2013-06-18 10:50:00,79.1,70.1,29.89,ENE,67,0.0,7.0,74,0.00,,CLR,0.00,VWS V14.01,2013-06-18 14:50:00,
2013-06-18 10:55:00,79.6,70.2,29.89,SSE,150,0.0,7.0,73,0.00,,CLR,0.00,VWS V14.01,2013-06-18 14:55:00,
2013-06-18 11:00:00,80.1,70.3,29.88,ESE,105,0.0,0.0,72,0.00,,CLR,0.00,VWS V14.01,2013-06-18 15:00:00,
2013-06-18 11:05:00,80.5,70.7,29.89,ENE,60,0.0,2.0,72,0.00,,CLR,0.00,VWS V14.01,2013-06-18 15:05:00,
2013-06-18 11:10:00,81.2,70.9,29.88,NE,46,0.0,3.0,71,0.00,,CLR,0.00,VWS V14.01,2013-06-18 15:10:00,
2013-06-18 11:15:00,81.3,70.6,29.88,NE,42,0.0,3.0,70,0.00,,CLR,0.00,VWS V14.01,2013-06-18 15:15:00,
2013-06-18 11:20:00,81.2,70.5,29.88,SSE,161,0.0,3.0,70,0.00,,CLR,0.00,VWS V14.01,2013-06-18 15:20:00,
2013-06-18 11:25:00,80.8,70.1,29.89,South,190,0.0,3.0,70,0.00,,CLR,0.00,VWS V14.01,2013-06-18 15:25:00,
2013-06-18 11:30:00,80.5,69.8,29.88,SW,225,0.0,2.0,70,0.00,,CLR,0.00,VWS V14.01,2013-06-18 15:30:00,
2013-06-18 11:35:00,80.5,69.8,29.88,SSE,152,3.0,4.0,70,0.00,,CLR,0.00,VWS V14.01,2013-06-18 15:35:00,
2013-06-18 11:40:00,80.3,69.6,29.88,SE,146,2.0,4.0,70,0.00,,CLR,0.00,VWS V14.01,2013-06-18 15:40:00,
2013-06-18 11:45:00,79.8,69.6,29.88,South,171,0.0,4.0,71,0.00,,CLR,0.00,VWS V14.01,2013-06-18 15:45:00,
2013-06-18 11:50:00,79.4,70.0,29.88,SSE,147,1.0,4.0,73,0.00,,CLR,0.00,VWS V14.01,2013-06-18 15:50:00,
2013-06-18 11:55:00,79.1,69.7,29.89,SSW,193,0.0,4.0,73,0.00,,CLR,0.00,VWS V14.01,2013-06-18 15:55:00,
2013-06-18 12:00:00,78.7,70.5,29.89,SE,124,1.0,3.0,76,0.00,,CLR,0.00,VWS V14.01,2013-06-18 16:00:00,
2013-06-18 12:05:00,78.0,71.3,29.89,ESE,123,0.0,5.0,80,0.00,,CLR,0.00,VWS V14.01,2013-06-18 16:05:00,
2013-06-18 12:10:00,77.4,70.8,29.89,SE,132,3.0,5.0,80,0.00,,CLR,0.00,VWS V14.01,2013-06-18 16:10:00,
2013-06-18 12:15:00,76.6,71.1,29.88,ESE,118,0.0,5.0,83,0.00,,CLR,0.00,VWS V14.01,2013-06-18 16:15:00,
2013-06-18 12:20:00,76.0,70.8,29.88,SW,222,0.0,5.0,84,0.00,,CLR,0.00,VWS V14.01,2013-06-18 16:20:00,
2013-06-18 12:25:00,75.6,70.8,29.88,SE,142,0.0,5.0,85,0.00,,CLR,0.00,VWS V14.01,2013-06-18 16:25:00,
2013-06-18 12:30:00,75.2,70.7,29.87,SE,131,0.0,1.0,86,0.00,,CLR,0.00,VWS V14.01,2013-06-18 16:30:00,
2013-06-18 12:35:00,74.8,71.0,29.86,SE,131,0.0,2.0,88,0.00,,CLR,0.00,VWS V14.01,2013-06-18 16:35:00,
2013-06-18 12:40:00,74.5,71.1,29.86,SE,131,2.0,2.0,89,0.00,,CLR,0.00,VWS V14.01,2013-06-18 16:40:00,
2013-06-18 12:45:00,74.0,70.9,29.86,ESE,119,0.0,3.0,90,0.00,,CLR,0.00,VWS V14.01,2013-06-18 16:45:00,
2013-06-18 12:50:00,73.8,70.7,29.86,SSE,153,0.0,3.0,90,0.00,,CLR,0.00,VWS V14.01,2013-06-18 16:50:00,
2013-06-18 12:55:00,73.7,70.9,29.86,SSE,153,0.0,3.0,91,0.00,,CLR,0.00,VWS V14.01,2013-06-18 16:55:00,
2013-06-18 13:00:00,73.6,70.8,29.86,SSE,153,2.0,2.0,91,0.00,,FEW070,0.00,VWS V14.01,2013-06-18 17:00:00,
2013-06-18 13:05:00,73.4,70.6,29.86,SE,138,1.0,2.0,91,0.00,,FEW070,0.00,VWS V14.01,2013-06-18 17:05:00,
2013-06-18 13:10:00,73.4,70.6,29.86,SE,139,0.0,2.0,91,0.00,,FEW070,0.00,VWS V14.01,2013-06-18 17:10:00,
2013-06-18 13:15:00,73.4,70.6,29.86,SSE,150,0.0,2.0,91,0.00,,FEW070,0.00,VWS V14.01,2013-06-18 17:15:00,
2013-06-18 13:20:00,73.4,70.6,29.85,SE,130,0.0,2.0,91,0.00,,FEW070,0.00,VWS V14.01,2013-06-18 17:20:00,
2013-06-18 13:25:00,73.5,71.0,29.85,SE,130,0.0,2.0,92,0.00,,FEW070,0.00,VWS V14.01,2013-06-18 17:25:00,
2013-06-18 13:30:00,73.6,71.1,29.85,SE,130,0.0,0.0,92,0.00,,FEW070,0.00,VWS V14.01,2013-06-18 17:30:00,
2013-06-18 13:35:00,73.7,70.9,29.85,SE,130,0.0,0.0,91,0.00,,FEW070,0.00,VWS V14.01,2013-06-18 17:35:00,
2013-06-18 13:40:00,73.6,71.1,29.85,SE,130,0.0,0.0,92,0.00,,FEW070,0.00,VWS V14.01,2013-06-18 17:40:00,
2013-06-18 13:45:00,73.7,70.9,29.85,SE,134,0.0,1.0,91,0.00,,FEW070,0.00,VWS V14.01,2013-06-18 17:45:00,
2013-06-18 13:50:00,73.8,71.0,29.85,SE,133,0.0,1.0,91,0.00,,FEW070,0.00,VWS V14.01,2013-06-18 17:50:00,
2013-06-18 13:55:00,73.9,71.1,29.85,SSW,194,0.0,1.0,91,0.00,,FEW070,0.00,VWS V14.01,2013-06-18 17:55:00,
2013-06-18 14:00:00,74.1,70.7,29.85,WSW,253,0.0,0.0,89,0.00,,CLR,0.00,VWS V14.01,2013-06-18 18:00:00,
2013-06-18 14:06:00,74.4,71.3,29.85,West,281,0.0,2.0,90,0.00,,CLR,0.00,VWS V14.01,2013-06-18 18:06:00,
2013-06-18 14:11:00,74.5,70.7,29.85,West,281,0.0,2.0,88,0.00,,CLR,0.00,VWS V14.01,2013-06-18 18:11:00,
2013-06-18 14:16:00,74.6,70.8,29.85,WNW,286,0.0,2.0,88,0.00,,CLR,0.00,VWS V14.01,2013-06-18 18:16:00,
2013-06-18 14:21:00,74.8,71.3,29.85,NW,306,0.0,2.0,89,0.00,,CLR,0.00,VWS V14.01,2013-06-18 18:21:00,
2013-06-18 14:26:00,75.0,71.9,29.84,NW,306,0.0,2.0,90,0.00,,CLR,0.00,VWS V14.01,2013-06-18 18:26:00,
2013-06-18 14:31:00,75.2,71.7,29.84,NW,306,0.0,0.0,89,0.00,,CLR,0.00,VWS V14.01,2013-06-18 18:31:00,
2013-06-18 14:36:00,74.9,70.8,29.83,WNW,296,0.0,1.0,87,0.00,,CLR,0.00,VWS V14.01,2013-06-18 18:36:00,
2013-06-18 14:41:00,74.8,71.0,29.83,WNW,284,0.0,2.0,88,0.00,,CLR,0.00,VWS V14.01,2013-06-18 18:41:00,
2013-06-18 14:46:00,74.7,70.9,29.84,West,272,0.0,2.0,88,0.00,,CLR,0.00,VWS V14.01,2013-06-18 18:46:00,
2013-06-18 14:51:00,74.5,70.7,29.85,SE,135,1.0,2.0,88,0.00,,CLR,0.00,VWS V14.01,2013-06-18 18:51:00,
2013-06-18 14:56:00,74.2,70.8,29.86,SE,136,2.0,3.0,89,0.00,,CLR,0.00,VWS V14.01,2013-06-18 18:56:00,
2013-06-18 15:01:00,73.9,70.8,29.86,SE,136,2.0,3.0,90,0.00,,FEW033,0.00,VWS V14.01,2013-06-18 19:01:00,
2013-06-18 15:06:00,73.5,70.4,29.85,SE,132,2.0,4.0,90,0.00,,FEW033,0.00,VWS V14.01,2013-06-18 19:06:00,
2013-06-18 15:11:00,73.0,69.2,29.86,SSE,157,0.0,4.0,88,0.00,,FEW033,0.00,VWS V14.01,2013-06-18 19:11:00,
2013-06-18 15:16:00,72.5,68.4,29.86,ESE,121,0.0,4.0,87,0.00,,FEW033,0.00,VWS V14.01,2013-06-18 19:16:00,
2013-06-18 15:21:00,72.1,68.0,29.85,SSE,167,0.0,4.0,87,0.00,,FEW033,0.00,VWS V14.01,2013-06-18 19:21:00,
2013-06-18 15:26:00,71.7,68.0,29.84,SE,134,0.0,4.0,88,0.00,,FEW033,0.00,VWS V14.01,2013-06-18 19:26:00,
2013-06-18 15:31:00,71.3,67.9,29.84,SE,143,0.0,3.0,89,0.00,,FEW033,0.00,VWS V14.01,2013-06-18 19:31:00,
2013-06-18 15:36:00,70.6,67.5,29.84,ENE,68,0.0,4.0,90,0.00,,FEW033,0.00,VWS V14.01,2013-06-18 19:36:00,
2013-06-18 15:41:00,70.0,67.3,29.85,SE,134,2.0,6.0,91,0.00,,FEW033,0.00,VWS V14.01,2013-06-18 19:41:00,
2013-06-18 15:46:00,69.5,66.8,29.85,SE,140,3.0,6.0,91,0.00,,FEW033,0.00,VWS V14.01,2013-06-18 19:46:00,
2013-06-18 15:51:00,68.9,66.2,29.85,SE,132,0.0,7.0,91,0.00,,FEW033,0.00,VWS V14.01,2013-06-18 19:51:00,
2013-06-18 15:56:00,68.2,65.5,29.85,ESE,102,5.0,9.0,91,0.00,,FEW033,0.00,VWS V14.01,2013-06-18 19:56:00,
2013-06-18 16:01:00,67.5,65.1,29.84,East,84,3.0,11.0,92,0.00,,-RA,0.00,VWS V14.01,2013-06-18 20:01:00,
2013-06-18 16:06:00,66.9,64.8,29.84,ESE,120,1.0,11.0,93,0.00,,-RA,0.00,VWS V14.01,2013-06-18 20:06:00,
2013-06-18 16:11:00,66.7,64.9,29.84,SE,138,2.0,11.0,94,0.00,,-RA,0.00,VWS V14.01,2013-06-18 20:11:00,
2013-06-18 16:16:00,66.5,64.7,29.85,SE,146,3.0,11.0,94,0.00,,-RA,0.00,VWS V14.01,2013-06-18 20:16:00,
2013-06-18 16:21:00,66.2,64.4,29.85,SE,128,7.0,11.0,94,0.00,,-RA,0.00,VWS V14.01,2013-06-18 20:21:00,
2013-06-18 16:26:00,65.9,64.1,29.85,ENE,59,2.0,11.0,94,0.00,,-RA,0.00,VWS V14.01,2013-06-18 20:26:00,
2013-06-18 16:31:00,65.9,64.4,29.85,East,94,0.0,8.0,95,0.00,,-RA,0.00,VWS V14.01,2013-06-18 20:31:00,
2013-06-18 16:36:00,66.0,64.8,29.85,ESE,105,2.0,8.0,96,0.00,,-RA,0.00,VWS V14.01,2013-06-18 20:36:00,
2013-06-18 16:41:00,65.9,64.4,29.85,SSE,153,2.0,10.0,95,0.00,,-RA,0.00,VWS V14.01,2013-06-18 20:41:00,
2013-06-18 16:46:00,65.8,64.6,29.84,SSE,163,6.0,10.0,96,0.00,,-RA,0.00,VWS V14.01,2013-06-18 20:46:00,
2013-06-18 16:51:00,65.7,64.5,29.84,East,92,2.0,10.0,96,0.00,,-RA,0.00,VWS V14.01,2013-06-18 20:51:00,
2013-06-18 16:56:00,65.7,64.5,29.84,South,191,2.0,10.0,96,0.00,,-RA,0.00,VWS V14.01,2013-06-18 20:56:00,
2013-06-18 17:01:00,65.7,64.5,29.85,SSE,148,0.0,1.0,96,0.00,,-RA,0.00,VWS V14.01,2013-06-18 21:01:00,
2013-06-18 17:06:00,65.8,64.6,29.85,South,185,0.0,2.0,96,0.00,,-RA,0.00,VWS V14.01,2013-06-18 21:06:00,
2013-06-18 17:11:00,65.8,64.9,29.85,SE,141,0.0,2.0,97,0.00,,-RA,0.00,VWS V14.01,2013-06-18 21:11:00,
2013-06-18 17:16:00,65.8,64.6,29.85,SSW,211,0.0,4.0,96,0.00,,-RA,0.00,VWS V14.01,2013-06-18 21:16:00,
2013-06-18 17:21:00,65.8,64.6,29.85,South,190,0.0,4.0,96,0.00,,-RA,0.00,VWS V14.01,2013-06-18 21:21:00,
2013-06-18 17:26:00,65.8,64.9,29.85,South,191,0.0,4.0,97,0.00,,-RA,0.00,VWS V14.01,2013-06-18 21:26:00,
2013-06-18 17:31:00,66.0,65.1,29.85,South,172,0.0,1.0,97,0.00,,-RA,0.00,VWS V14.01,2013-06-18 21:31:00,
2013-06-18 17:36:00,66.0,65.1,29.85,South,172,1.0,2.0,97,0.00,,-RA,0.00,VWS V14.01,2013-06-18 21:36:00,
2013-06-18 17:42:00,66.0,64.8,29.85,South,171,0.0,2.0,96,0.00,,-RA,0.00,VWS V14.01,2013-06-18 21:42:00,
2013-06-18 17:47:00,66.0,65.1,29.85,ENE,75,0.0,2.0,97,0.00,,-RA,0.00,VWS V14.01,2013-06-18 21:47:00,
2013-06-18 17:52:00,66.1,64.9,29.85,ENE,75,0.0,2.0,96,0.00,,-RA,0.00,VWS V14.01,2013-06-18 21:52:00,
2013-06-18 17:57:00,66.1,65.2,29.85,ENE,75,0.0,2.0,97,0.00,,-RA,0.00,VWS V14.01,2013-06-18 21:57:00,
2013-06-18 18:02:00,66.2,65.3,29.85,ENE,75,0.0,0.0,97,0.00,,-RA,0.00,VWS V14.01,2013-06-18 22:02:00,
2013-06-18 18:07:00,66.3,65.4,29.86,ENE,75,0.0,1.0,97,0.00,,-RA,0.00,VWS V14.01,2013-06-18 22:07:00,
2013-06-18 18:12:00,66.4,65.5,29.86,ENE,75,0.0,1.0,97,0.00,,-RA,0.00,VWS V14.01,2013-06-18 22:12:00,
2013-06-18 18:17:00,66.4,65.5,29.87,NNE,26,0.0,2.0,97,0.00,,-RA,0.00,VWS V14.01,2013-06-18 22:17:00,
2013-06-18 18:22:00,66.4,65.5,29.87,NNE,12,0.0,4.0,97,0.00,,-RA,0.00,VWS V14.01,2013-06-18 22:22:00,
2013-06-18 18:27:00,66.5,65.6,29.88,NNE,26,0.0,4.0,97,0.00,,-RA,0.00,VWS V14.01,2013-06-18 22:27:00,
2013-06-18 18:32:00,66.4,65.2,29.88,NNE,33,0.0,3.0,96,0.00,,-RA,0.00,VWS V14.01,2013-06-18 22:32:00,
2013-06-18 18:37:00,66.3,65.1,29.88,NNE,13,1.0,7.0,96,0.00,,-RA,0.00,VWS V14.01,2013-06-18 22:37:00,
2013-06-18 18:42:00,66.3,65.1,29.88,NE,37,0.0,7.0,96,0.00,,-RA,0.00,VWS V14.01,2013-06-18 22:42:00,
2013-06-18 18:47:00,66.4,65.5,29.88,NE,51,1.0,7.0,97,0.00,,-RA,0.00,VWS V14.01,2013-06-18 22:47:00,
2013-06-18 18:52:00,66.4,65.2,29.88,NNE,16,0.0,7.0,96,0.00,,-RA,0.00,VWS V14.01,2013-06-18 22:52:00,
2013-06-18 18:57:00,66.3,65.1,29.87,ENE,58,0.0,7.0,96,0.00,,-RA,0.00,VWS V14.01,2013-06-18 22:57:00,
2013-06-18 19:02:00,66.2,65.0,29.87,South,175,0.0,1.0,96,0.00,,-RA,0.00,VWS V14.01,2013-06-18 23:02:00,
2013-06-18 19:07:00,66.1,64.6,29.87,NNE,26,0.0,2.0,95,0.00,,-RA,0.00,VWS V14.01,2013-06-18 23:07:00,
2013-06-18 19:12:00,66.0,64.5,29.86,SSE,148,0.0,2.0,95,0.00,,-RA,0.00,VWS V14.01,2013-06-18 23:12:00,
2013-06-18 19:17:00,65.8,64.3,29.86,NNE,19,0.0,4.0,95,0.00,,-RA,0.00,VWS V14.01,2013-06-18 23:17:00,
2013-06-18 19:22:00,65.8,64.3,29.86,SE,130,0.0,4.0,95,0.00,,-RA,0.00,VWS V14.01,2013-06-18 23:22:00,
2013-06-18 19:27:00,65.7,64.2,29.86,SE,130,0.0,4.0,95,0.00,,-RA,0.00,VWS V14.01,2013-06-18 23:27:00,
2013-06-18 19:32:00,65.7,64.2,29.86,SE,134,0.0,1.0,95,0.00,,-RA,0.00,VWS V14.01,2013-06-18 23:32:00,
2013-06-18 19:37:00,65.7,64.5,29.86,SSE,168,1.0,2.0,96,0.00,,-RA,0.00,VWS V14.01,2013-06-18 23:37:00,
2013-06-18 19:42:00,65.5,64.0,29.85,South,188,0.0,3.0,95,0.00,,-RA,0.00,VWS V14.01,2013-06-18 23:42:00,
2013-06-18 19:47:00,65.4,63.9,29.84,ESE,122,1.0,4.0,95,0.00,,-RA,0.00,VWS V14.01,2013-06-18 23:47:00,
2013-06-18 19:52:00,65.3,63.8,29.84,South,177,0.0,4.0,95,0.00,,-RA,0.00,VWS V14.01,2013-06-18 23:52:00,
2013-06-18 19:57:00,65.3,63.8,29.84,West,268,0.0,4.0,95,0.00,,-RA,0.00,VWS V14.01,2013-06-18 23:57:00,
2013-06-18 20:02:00,65.3,64.1,29.84,West,269,0.0,0.0,96,0.00,,-RA,0.00,VWS V14.01,2013-06-19 00:02:00,
2013-06-18 20:07:00,65.4,64.2,29.85,West,269,0.0,0.0,96,0.00,,-RA,0.00,VWS V14.01,2013-06-19 00:07:00,
2013-06-18 20:12:00,65.6,64.4,29.85,West,269,0.0,0.0,96,0.00,,-RA,0.00,VWS V14.01,2013-06-19 00:12:00,
2013-06-18 20:17:00,65.7,64.5,29.84,West,269,0.0,0.0,96,0.00,,-RA,0.00,VWS V14.01,2013-06-19 00:17:00,
2013-06-18 20:22:00,65.8,64.6,29.84,West,269,0.0,1.0,96,0.00,,-RA,0.00,VWS V14.01,2013-06-19 00:22:00,
2013-06-18 20:27:00,65.8,64.6,29.84,NE,40,0.0,1.0,96,0.00,,-RA,0.00,VWS V14.01,2013-06-19 00:27:00,
2013-06-18 20:32:00,65.8,64.6,29.84,North,355,2.0,4.0,96,0.00,,-RA,0.00,VWS V14.01,2013-06-19 00:32:00,
2013-06-18 20:37:00,65.7,64.5,29.85,ENE,61,0.0,4.0,96,0.00,,-RA,0.00,VWS V14.01,2013-06-19 00:37:00,
2013-06-18 20:42:00,65.6,64.1,29.85,NNW,338,3.0,4.0,95,0.00,,-RA,0.00,VWS V14.01,2013-06-19 00:42:00,
2013-06-18 20:47:00,65.6,64.1,29.85,NNW,345,2.0,4.0,95,0.00,,-RA,0.00,VWS V14.01,2013-06-19 00:47:00,
2013-06-18 20:52:00,65.5,64.0,29.85,NW,323,1.0,5.0,95,0.00,,-RA,0.00,VWS V14.01,2013-06-19 00:52:00,
2013-06-18 20:57:00,65.4,63.9,29.85,NNW,331,4.0,6.0,95,0.00,,-RA,0.00,VWS V14.01,2013-06-19 00:57:00,
2013-06-18 21:02:00,65.3,63.8,29.85,West,277,1.0,3.0,95,0.00,,FEW110,0.00,VWS V14.01,2013-06-19 01:02:00,
2013-06-18 21:07:00,65.3,63.8,29.86,North,5,2.0,3.0,95,0.00,,FEW110,0.00,VWS V14.01,2013-06-19 01:07:00,
2013-06-18 21:12:00,65.2,63.7,29.86,North,349,0.0,4.0,95,0.00,,FEW110,0.00,VWS V14.01,2013-06-19 01:12:00,
2013-06-18 21:18:00,65.0,63.5,29.86,WNW,284,0.0,5.0,95,0.00,,FEW110,0.00,VWS V14.01,2013-06-19 01:18:00,
2013-06-18 21:23:00,64.9,63.4,29.86,North,355,1.0,5.0,95,0.00,,FEW110,0.00,VWS V14.01,2013-06-19 01:23:00,
2013-06-18 21:28:00,64.8,63.3,29.86,NNW,330,2.0,5.0,95,0.00,,FEW110,0.00,VWS V14.01,2013-06-19 01:28:00,
2013-06-18 21:33:00,64.7,63.2,29.86,NNW,343,1.0,5.0,95,0.00,,FEW110,0.00,VWS V14.01,2013-06-19 01:33:00,
2013-06-18 21:38:00,64.7,63.2,29.86,NNE,14,0.0,5.0,95,0.00,,FEW110,0.00,VWS V14.01,2013-06-19 01:38:00,
2013-06-18 21:43:00,64.6,63.1,29.86,NNE,14,0.0,5.0,95,0.00,,FEW110,0.00,VWS V14.01,2013-06-19 01:43:00,
2013-06-18 21:48:00,64.6,63.1,29.87,NW,320,1.0,5.0,95,0.00,,FEW110,0.00,VWS V14.01,2013-06-19 01:48:00,
2013-06-18 21:53:00,64.6,63.1,29.87,NW,320,0.0,5.0,95,0.00,,FEW110,0.00,VWS V14.01,2013-06-19 01:53:00,
2013-06-18 21:58:00,64.6,63.1,29.88,NW,320,0.0,5.0,95,0.00,,FEW110,0.00,VWS V14.01,2013-06-19 01:58:00,
2013-06-18 22:03:00,64.5,63.0,29.88,NW,310,0.0,4.0,95,0.00,,CLR,0.00,VWS V14.01,2013-06-19 02:03:00,
2013-06-18 22:08:00,64.4,62.9,29.88,NW,322,3.0,4.0,95,0.00,,CLR,0.00,VWS V14.01,2013-06-19 02:08:00,
2013-06-18 22:13:00,64.3,63.1,29.88,NW,306,0.0,5.0,96,0.00,,CLR,0.00,VWS V14.01,2013-06-19 02:13:00,
2013-06-18 22:18:00,64.3,63.1,29.88,NW,314,3.0,5.0,96,0.00,,CLR,0.00,VWS V14.01,2013-06-19 02:18:00,
2013-06-18 22:23:00,64.3,63.1,29.88,North,355,4.0,5.0,96,0.00,,CLR,0.00,VWS V14.01,2013-06-19 02:23:00,
2013-06-18 22:28:00,64.2,63.0,29.88,WNW,299,0.0,5.0,96,0.00,,CLR,0.00,VWS V14.01,2013-06-19 02:28:00,
2013-06-18 22:33:00,64.2,63.0,29.88,NNW,337,0.0,3.0,96,0.00,,CLR,0.00,VWS V14.01,2013-06-19 02:33:00,
2013-06-18 22:38:00,64.2,63.0,29.88,NNW,331,1.0,3.0,96,0.00,,CLR,0.00,VWS V14.01,2013-06-19 02:38:00,
2013-06-18 22:43:00,64.1,62.6,29.88,NNW,331,0.0,3.0,95,0.00,,CLR,0.00,VWS V14.01,2013-06-19 02:43:00,
2013-06-18 22:48:00,64.0,62.8,29.89,NNW,342,0.0,3.0,96,0.00,,CLR,0.00,VWS V14.01,2013-06-19 02:48:00,
2013-06-18 22:53:00,64.0,62.5,29.89,NNW,342,0.0,3.0,95,0.00,,CLR,0.00,VWS V14.01,2013-06-19 02:53:00,
2013-06-18 22:58:00,63.8,62.3,29.89,NNW,342,0.0,3.0,95,0.00,,CLR,0.00,VWS V14.01,2013-06-19 02:58:00,
2013-06-18 23:03:00,63.7,62.2,29.89,NNW,342,0.0,2.0,95,0.00,,FEW035,0.00,VWS V14.01,2013-06-19 03:03:00,
2013-06-18 23:08:00,63.6,62.4,29.89,NNW,342,0.0,2.0,96,0.00,,FEW035,0.00,VWS V14.01,2013-06-19 03:08:00,
2013-06-18 23:13:00,63.5,62.3,29.90,NNW,342,0.0,2.0,96,0.00,,FEW035,0.00,VWS V14.01,2013-06-19 03:13:00,
2013-06-18 23:18:00,63.5,62.3,29.90,NNW,343,0.0,2.0,96,0.00,,FEW035,0.00,VWS V14.01,2013-06-19 03:18:00,
2013-06-18 23:23:00,63.4,62.2,29.90,NNW,343,0.0,2.0,96,0.00,,FEW035,0.00,VWS V14.01,2013-06-19 03:23:00,
2013-06-18 23:28:00,63.3,62.1,29.90,NNW,334,0.0,2.0,96,0.00,,FEW035,0.00,VWS V14.01,2013-06-19 03:28:00,
2013-06-18 23:33:00,63.3,62.1,29.90,NNW,334,0.0,0.0,96,0.00,,FEW035,0.00,VWS V14.01,2013-06-19 03:33:00,
2013-06-18 23:38:00,63.3,62.4,29.90,NNW,334,0.0,2.0,97,0.00,,BKN014,0.00,VWS V14.01,2013-06-19 03:38:00,
2013-06-18 23:43:00,63.4,62.5,29.90,NNW,333,0.0,2.0,97,0.00,,BKN014,0.00,VWS V14.01,2013-06-19 03:43:00,
2013-06-18 23:48:00,63.4,62.5,29.90,NNW,331,0.0,3.0,97,0.00,,BKN014,0.00,VWS V14.01,2013-06-19 03:48:00,
2013-06-18 23:53:00,63.5,62.6,29.90,NNW,332,1.0,3.0,97,0.00,,BKN014,0.00,VWS V14.01,2013-06-19 03:53:00,
2013-06-18 23:58:00,63.5,62.6,29.90,NNW,332,1.0,3.0,97,0.00,,BKN014,0.00,VWS V14.01,2013-06-19 03:58:00,